Time;durP1;ratioP1;P1;durP2;ratioP2;P2;SDS_P1;SDS_P2;PMS_P1;PMS_P2;Temp;Humidity;BMP_temperature;BMP_pressure;BME280_temperature;BME280_humidity;BME280_pressure;Samples;Min_cycle;Max_cycle;Signal;HPM_P1;HPM_P2
2022/09/19 00:01:33;;;;;;;14.90;1.70;;;;;;;-145.18;100.00;46697.50;4972477;28;20288;-81
2022/09/19 00:04:12;;;;;;;21.40;2.13;;;;;;;-145.18;100.00;46697.50;4972550;28;20650;-81
2022/09/19 00:06:39;;;;;;;11.90;2.10;;;;;;;-145.18;100.00;46699.47;4972063;28;20312;-81
2022/09/19 00:09:07;;;;;;;6.70;1.07;;;;;;;-145.18;100.00;46693.59;4972433;28;20283;-80
2022/09/19 00:11:33;;;;;;;14.30;1.57;;;;;;;-145.18;100.00;46699.47;4972060;28;20330;-80
2022/09/19 00:14:00;;;;;;;12.43;2.13;;;;;;;-145.18;100.00;46695.56;4972221;28;20757;-81
2022/09/19 00:16:28;;;;;;;10.57;1.60;;;;;;;-145.18;100.00;46695.56;4972259;28;20109;-80
2022/09/19 00:18:57;;;;;;;15.27;1.40;;;;;;;-145.18;100.00;46705.31;4972705;28;20768;-80
2022/09/19 00:21:25;;;;;;;10.83;1.47;;;;;;;-145.18;100.00;46705.31;4972414;28;20749;-80
2022/09/19 00:26:36;;;;;;;15.70;1.47;;;;;;;-145.18;100.00;46695.56;4972592;28;20348;-80
2022/09/19 00:29:03;;;;;;;13.13;1.97;;;;;;;-145.18;100.00;46699.47;4954102;28;20277;-80
2022/09/19 00:31:28;;;;;;;18.00;2.60;;;;;;;-145.18;100.00;46693.59;4972131;28;20361;-80
2022/09/19 00:33:54;;;;;;;9.57;2.30;;;;;;;-145.18;100.00;46691.66;4954601;28;20275;-80
2022/09/19 00:36:20;;;;;;;13.17;1.53;;;;;;;-145.18;100.00;46695.56;4972376;28;20043;-81
2022/09/19 00:38:45;;;;;;;12.23;1.60;;;;;;;-145.18;100.00;46695.56;4972153;28;20365;-80
2022/09/19 00:41:25;;;;;;;12.13;1.43;;;;;;;-145.18;100.00;46693.59;4954975;28;20031;-81
2022/09/19 00:43:55;;;;;;;10.53;1.60;;;;;;;-145.18;100.00;46693.59;4972346;28;20035;-80
2022/09/19 00:46:24;;;;;;;19.27;1.77;;;;;;;-145.18;100.00;46687.75;4972122;28;20276;-81
2022/09/19 00:49:07;;;;;;;13.23;2.03;;;;;;;-145.18;100.00;46683.84;4972334;28;20269;-81
2022/09/19 00:51:36;;;;;;;14.73;1.70;;;;;;;-145.18;100.00;46689.69;4971765;28;20261;-80
2022/09/19 00:54:07;;;;;;;14.23;1.83;;;;;;;-145.18;100.00;46687.75;4971684;28;20359;-80
2022/09/19 00:56:34;;;;;;;13.30;1.50;;;;;;;-145.18;100.00;46691.66;4971682;28;20261;-81
2022/09/19 00:59:01;;;;;;;10.87;2.40;;;;;;;-145.18;100.00;46687.75;4954056;28;20319;-81
2022/09/19 01:01:26;;;;;;;9.70;1.60;;;;;;;-145.18;100.00;46683.84;4971374;28;20300;-81
2022/09/19 01:03:55;;;;;;;9.50;1.40;;;;;;;-145.18;100.00;46681.88;4971428;28;20296;-80
2022/09/19 01:06:35;;;;;;;25.23;1.93;;;;;;;-145.18;100.00;46677.97;4971710;28;20042;-80
2022/09/19 01:09:10;;;;;;;15.27;2.17;;;;;;;-145.18;100.00;46672.13;4972210;28;20339;-80
2022/09/19 01:11:39;;;;;;;19.45;2.72;;;;;;;-145.18;100.00;46683.84;4971641;28;20261;-80
2022/09/19 01:14:29;;;;;;;17.37;2.03;;;;;;;-145.18;100.00;46674.06;4971764;28;20635;-81
2022/09/19 01:17:19;;;;;;;20.13;1.70;;;;;;;-145.18;100.00;46672.13;4971174;28;20272;-81
2022/09/19 01:19:59;;;;;;;14.17;1.90;;;;;;;-145.18;100.00;46674.06;4971626;28;20265;-81
2022/09/19 01:22:43;;;;;;;12.40;1.43;;;;;;;-145.18;100.00;46677.97;4971798;28;20267;-81
2022/09/19 01:25:14;;;;;;;13.63;1.37;;;;;;;-145.18;100.00;46676.03;4971987;28;20411;-80
2022/09/19 01:28:08;;;;;;;16.10;1.60;;;;;;;-145.18;100.00;46672.13;4971534;28;20296;-80
2022/09/19 01:30:36;;;;;;;15.00;1.60;;;;;;;-145.18;100.00;46668.22;4971887;28;20257;-80
2022/09/19 01:33:17;;;;;;;9.43;1.10;;;;;;;-145.18;100.00;46676.03;4971037;28;20276;-81
2022/09/19 01:35:47;;;;;;;10.93;2.40;;;;;;;-145.18;100.00;46670.16;4971823;28;20252;-81
2022/09/19 01:38:22;;;;;;;20.03;1.87;;;;;;;-145.18;100.00;46672.13;4970869;28;20631;-81
2022/09/19 01:40:49;;;;;;;11.43;1.40;;;;;;;-145.18;100.00;46666.25;4972811;28;20339;-81
2022/09/19 01:43:16;;;;;;;14.50;1.90;;;;;;;-145.18;100.00;46670.16;4974811;28;20023;-81
2022/09/19 01:45:43;;;;;;;16.37;1.73;;;;;;;-145.18;100.00;46670.16;4975441;28;20304;-81
2022/09/19 01:48:26;;;;;;;13.47;1.30;;;;;;;-145.18;100.00;46672.13;4974479;28;20261;-80
2022/09/19 01:51:00;;;;;;;10.77;1.40;;;;;;;-145.18;100.00;46670.16;4975123;28;20269;-81
2022/09/19 01:54:06;;;;;;;22.60;2.53;;;;;;;-145.18;100.00;46679.94;4974487;28;20757;-81
2022/09/19 01:56:50;;;;;;;16.67;2.33;;;;;;;-145.18;100.00;46674.06;4974860;28;20279;-80
2022/09/19 01:59:36;;;;;;;13.60;1.83;;;;;;;-145.18;100.00;46672.13;4975098;28;20599;-80
2022/09/19 02:02:10;;;;;;;14.20;2.17;;;;;;;-145.18;100.00;46685.78;5246266;23;20296;-81
2022/09/19 02:05:00;;;;;;;11.67;1.40;;;;;;;-145.18;100.00;46679.94;5001492;28;20396;-80
2022/09/19 02:07:42;;;;;;;12.77;1.57;;;;;;;-145.18;100.00;46683.84;4993467;28;20740;-80
2022/09/19 02:10:39;;;;;;;10.03;1.47;;;;;;;-145.18;100.00;46676.03;4994116;28;20311;-80
2022/09/19 02:13:08;;;;;;;17.37;1.87;;;;;;;-145.18;100.00;46689.69;4993815;28;20117;-80
2022/09/19 02:15:36;;;;;;;15.87;1.97;;;;;;;-145.18;100.00;46683.84;4994063;28;20342;-80
2022/09/19 02:18:10;;;;;;;9.87;1.30;;;;;;;-145.18;100.00;46695.56;4993863;28;20819;-80
2022/09/19 02:20:39;;;;;;;13.77;1.47;;;;;;;-145.18;100.00;46689.69;4994679;28;20275;-81
2022/09/19 02:23:14;;;;;;;15.83;1.60;;;;;;;-145.18;100.00;46699.47;4993835;28;20268;-80
2022/09/19 02:25:42;;;;;;;13.93;1.50;;;;;;;-145.18;100.00;46683.84;4994467;28;20652;-81
2022/09/19 02:28:12;;;;;;;12.60;1.80;;;;;;;-145.18;100.00;46683.84;4993671;28;20540;-81
2022/09/19 02:30:41;;;;;;;15.43;1.77;;;;;;;-145.18;100.00;46687.75;4994061;28;20637;-81
2022/09/19 02:33:07;;;;;;;19.57;1.60;;;;;;;-145.18;100.00;46693.59;4993981;28;20672;-80
2022/09/19 02:36:15;;;;;;;12.17;1.50;;;;;;;-145.18;100.00;46685.78;4994092;28;20272;-81
2022/09/19 02:39:26;;;;;;;16.97;2.40;;;;;;;-145.18;100.00;46693.59;4983309;28;20049;-80
2022/09/19 02:42:07;;;;;;;14.17;1.87;;;;;;;-145.18;100.00;46695.56;4913833;29;20374;-80
2022/09/19 02:44:40;;;;;;;10.17;1.73;;;;;;;-145.18;100.00;46695.56;4990480;28;20508;-80
2022/09/19 02:47:24;;;;;;;18.13;1.70;;;;;;;-145.18;100.00;46703.38;4993294;28;20030;-81
2022/09/19 02:49:55;;;;;;;12.40;1.70;;;;;;;-145.18;100.00;46687.75;4993560;28;20501;-81
2022/09/19 02:52:28;;;;;;;14.60;1.63;;;;;;;-145.18;100.00;46693.59;4992456;28;20533;-81
2022/09/19 02:55:03;;;;;;;9.80;1.77;;;;;;;-145.18;100.00;46697.50;4993062;28;20022;-81
2022/09/19 02:57:32;;;;;;;14.07;2.17;;;;;;;-145.18;100.00;46699.47;4993212;28;20030;-80
2022/09/19 03:00:00;;;;;;;12.80;1.43;;;;;;;-145.18;100.00;46703.38;4993504;28;20483;-80
2022/09/19 03:02:33;;;;;;;18.70;2.27;;;;;;;-145.18;100.00;46707.28;5005442;28;20057;-81
2022/09/19 03:05:10;;;;;;;14.20;1.47;;;;;;;-145.18;100.00;46697.50;5012785;28;20037;-81
2022/09/19 03:07:45;;;;;;;11.10;1.60;;;;;;;-145.18;100.00;46707.28;5011436;28;20057;-81
2022/09/19 03:10:13;;;;;;;13.47;2.07;;;;;;;-145.18;100.00;46709.22;4992872;28;20224;-81
2022/09/19 03:12:51;;;;;;;13.43;1.80;;;;;;;-145.18;100.00;46709.22;4993072;28;20034;-81
2022/09/19 03:15:24;;;;;;;8.37;1.43;;;;;;;-145.18;100.00;46705.31;4993063;28;20105;-81
2022/09/19 03:17:53;;;;;;;12.47;1.83;;;;;;;-145.18;100.00;46701.41;4992479;28;20081;-81
2022/09/19 03:20:24;;;;;;;17.23;1.87;;;;;;;-145.18;100.00;46709.22;4993040;28;20045;-80
2022/09/19 03:22:50;;;;;;;11.20;1.63;;;;;;;-145.18;100.00;46705.31;4992378;28;20109;-81
2022/09/19 03:25:16;;;;;;;12.23;1.67;;;;;;;-145.18;100.00;46703.38;4993029;28;20037;-81
2022/09/19 03:27:42;;;;;;;11.53;1.50;;;;;;;-145.18;100.00;46705.31;4992620;28;20030;-80
2022/09/19 03:30:11;;;;;;;11.83;1.80;;;;;;;-145.18;100.00;46693.59;4992492;28;20041;-81
2022/09/19 03:32:38;;;;;;;12.17;2.00;;;;;;;-145.18;100.00;46689.69;4992585;28;20053;-81
2022/09/19 03:35:04;;;;;;;10.23;1.70;;;;;;;-145.18;100.00;46701.41;4992493;28;20505;-81
2022/09/19 03:37:33;;;;;;;11.57;1.43;;;;;;;-145.18;100.00;46691.66;4975250;28;20276;-80
2022/09/19 03:39:59;;;;;;;14.57;2.00;;;;;;;-145.18;100.00;46695.56;4975009;28;20268;-80
2022/09/19 03:42:25;;;;;;;14.37;2.40;;;;;;;-145.18;100.00;46689.69;4992285;28;20295;-80
2022/09/19 03:44:52;;;;;;;12.10;1.50;;;;;;;-145.18;100.00;46691.66;4992314;28;20387;-80
2022/09/19 03:47:20;;;;;;;18.83;1.63;;;;;;;-145.18;100.00;46695.56;4992058;28;20284;-80
2022/09/19 03:49:50;;;;;;;10.53;1.80;;;;;;;-145.18;100.00;46693.59;4992436;28;20264;-80
2022/09/19 03:52:19;;;;;;;11.60;1.47;;;;;;;-145.18;100.00;46697.50;4992254;28;20269;-80
2022/09/19 03:54:45;;;;;;;17.70;1.80;;;;;;;-145.18;100.00;46689.69;4992445;28;20264;-81
2022/09/19 03:57:12;;;;;;;11.70;1.60;;;;;;;-145.18;100.00;46697.50;4990554;28;20537;-81
2022/09/19 03:59:38;;;;;;;8.87;1.87;;;;;;;-145.18;100.00;46697.50;4991482;28;20038;-81
2022/09/19 04:02:05;;;;;;;16.10;2.17;;;;;;;-145.18;100.00;46695.56;4991801;28;20537;-81
2022/09/19 04:04:31;;;;;;;15.40;1.77;;;;;;;-145.18;100.00;46695.56;4991977;28;20034;-81
2022/09/19 04:06:56;;;;;;;18.17;2.10;;;;;;;-145.18;100.00;46707.28;4992098;28;20026;-81
2022/09/19 04:09:21;;;;;;;7.47;1.40;;;;;;;-145.18;100.00;46703.38;4991809;28;20026;-81
2022/09/19 04:11:47;;;;;;;12.83;2.37;;;;;;;-145.18;100.00;46701.41;4990931;28;20026;-80
2022/09/19 04:14:13;;;;;;;15.20;2.53;;;;;;;-145.18;100.00;46695.56;4991778;28;20074;-80
2022/09/19 04:16:38;;;;;;;10.67;2.13;;;;;;;-145.18;100.00;46695.56;4992004;28;20097;-80
2022/09/19 04:19:10;;;;;;;9.60;1.47;;;;;;;-145.18;100.00;46703.38;4991545;28;20812;-81
2022/09/19 04:21:36;;;;;;;11.00;1.43;;;;;;;-145.18;100.00;46701.41;4992048;28;20030;-82
2022/09/19 04:24:01;;;;;;;9.47;1.40;;;;;;;-145.18;100.00;46695.56;4991406;28;20038;-82
2022/09/19 04:26:27;;;;;;;7.63;1.70;;;;;;;-145.18;100.00;46691.66;4991930;28;20035;-81
2022/09/19 04:28:53;;;;;;;16.40;2.40;;;;;;;-145.18;100.00;46687.75;4991133;28;20400;-82
2022/09/19 04:31:18;;;;;;;16.03;1.50;;;;;;;-145.18;100.00;46693.59;4993762;28;20419;-82
2022/09/19 04:33:43;;;;;;;12.87;2.00;;;;;;;-145.18;100.00;46689.69;5010941;28;20034;-81
2022/09/19 04:36:09;;;;;;;10.73;1.40;;;;;;;-145.18;100.00;46693.59;5007180;28;20042;-81
2022/09/19 04:38:36;;;;;;;12.80;2.10;;;;;;;-145.18;100.00;46687.75;4994981;28;20040;-81
2022/09/19 04:41:02;;;;;;;9.93;1.50;;;;;;;-145.18;100.00;46695.56;4992127;28;20537;-81
2022/09/19 04:43:29;;;;;;;12.00;2.00;;;;;;;-145.18;100.00;46683.84;4997301;28;20122;-81
2022/09/19 04:45:55;;;;;;;10.43;1.77;;;;;;;-145.18;100.00;46697.50;5004253;28;20118;-81
2022/09/19 04:48:22;;;;;;;11.50;1.07;;;;;;;-145.18;100.00;46695.56;5010099;28;20030;-81
2022/09/19 04:50:50;;;;;;;14.73;1.47;;;;;;;-145.18;100.00;46699.47;5011548;28;20069;-81
2022/09/19 04:53:23;;;;;;;8.60;1.30;;;;;;;-145.18;100.00;46701.41;5011179;28;20483;-82
2022/09/19 04:55:50;;;;;;;12.83;1.60;;;;;;;-145.18;100.00;46693.59;5001314;28;20038;-81
2022/09/19 04:58:16;;;;;;;17.03;2.17;;;;;;;-145.18;100.00;46705.31;4989045;28;20431;-81
2022/09/19 05:00:45;;;;;;;13.23;2.23;;;;;;;-145.18;100.00;46705.31;4991019;28;20034;-81
2022/09/19 05:03:13;;;;;;;14.87;1.40;;;;;;;-145.18;100.00;46705.31;4990357;28;20069;-81
2022/09/19 05:05:44;;;;;;;14.03;1.73;;;;;;;-145.18;100.00;46711.19;4991448;28;20050;-82
2022/09/19 05:08:12;;;;;;;13.43;2.40;;;;;;;-145.18;100.00;46707.28;4991083;28;20053;-81
2022/09/19 05:10:38;;;;;;;19.03;2.90;;;;;;;-145.18;100.00;46707.28;4991712;28;20058;-80
2022/09/19 05:13:03;;;;;;;10.83;1.63;;;;;;;-145.18;100.00;46705.31;4990667;28;20073;-79
2022/09/19 05:15:28;;;;;;;13.83;1.20;;;;;;;-145.18;100.00;46709.22;4991839;28;20125;-79
2022/09/19 05:17:55;;;;;;;10.60;1.60;;;;;;;-145.18;100.00;46705.31;4994738;28;20390;-79
2022/09/19 05:20:26;;;;;;;12.03;2.00;;;;;;;-145.18;100.00;46707.28;4995215;28;20034;-79
2022/09/19 05:22:58;;;;;;;13.40;1.47;;;;;;;-145.18;100.00;46697.50;4994748;28;20042;-79
2022/09/19 05:25:28;;;;;;;9.33;1.37;;;;;;;-145.18;100.00;46707.28;4995070;28;20030;-79
2022/09/19 05:27:57;;;;;;;7.57;1.47;;;;;;;-145.18;100.00;46703.38;4994880;28;20034;-79
2022/09/19 05:30:26;;;;;;;8.47;1.20;;;;;;;-145.18;100.00;46709.22;4977673;28;20034;-79
2022/09/19 05:32:51;;;;;;;10.87;1.70;;;;;;;-145.18;100.00;46705.31;4994523;28;20034;-79
2022/09/19 05:35:17;;;;;;;13.27;1.47;;;;;;;-145.18;100.00;46711.19;4995099;28;20264;-79
2022/09/19 05:37:45;;;;;;;20.83;2.07;;;;;;;-145.18;100.00;46707.28;4994456;28;20038;-79
2022/09/19 05:40:10;;;;;;;15.37;1.63;;;;;;;-145.18;100.00;46711.19;4994874;28;20445;-79
2022/09/19 05:42:43;;;;;;;15.57;2.30;;;;;;;-145.18;100.00;46709.22;4994737;28;20061;-79
2022/09/19 05:45:10;;;;;;;14.20;1.37;;;;;;;-145.18;100.00;46709.22;4994727;28;20038;-79
2022/09/19 05:47:39;;;;;;;16.70;2.47;;;;;;;-145.18;100.00;46709.22;4977169;28;20057;-79
2022/09/19 05:50:07;;;;;;;10.37;1.83;;;;;;;-145.18;100.00;46701.41;4976843;28;20041;-79
2022/09/19 05:55:18;;;;;;;14.87;2.00;;;;;;;-145.18;100.00;46705.31;4995172;28;20092;-79
2022/09/19 05:57:50;;;;;;;25.13;2.60;;;;;;;-145.18;100.00;46701.41;4994139;28;20125;-79
2022/09/19 06:00:15;;;;;;;10.10;1.33;;;;;;;-145.18;100.00;46705.31;4994568;28;20030;-79
2022/09/19 06:02:41;;;;;;;8.70;1.17;;;;;;;-145.18;100.00;46701.41;4992880;28;20054;-78
2022/09/19 06:05:06;;;;;;;13.53;2.37;;;;;;;-145.18;100.00;46707.28;4994083;28;20847;-79
2022/09/19 06:07:31;;;;;;;11.87;1.70;;;;;;;-145.18;100.00;46703.38;4994354;28;20030;-79
2022/09/19 06:09:57;;;;;;;8.33;1.50;;;;;;;-145.18;100.00;46707.28;4993963;28;20407;-79
2022/09/19 06:12:22;;;;;;;9.93;1.20;;;;;;;-145.18;100.00;46709.22;4993966;28;20065;-79
2022/09/19 06:14:47;;;;;;;12.80;1.50;;;;;;;-145.18;100.00;46707.28;4993743;28;20026;-79
2022/09/19 06:17:15;;;;;;;9.67;1.63;;;;;;;-145.18;100.00;46707.28;4992687;28;20033;-79
2022/09/19 06:19:41;;;;;;;11.23;1.13;;;;;;;-145.18;100.00;46711.19;4993525;28;20510;-79
2022/09/19 06:22:06;;;;;;;12.23;1.80;;;;;;;-145.18;100.00;46711.19;4993956;28;20085;-79
2022/09/19 06:24:32;;;;;;;10.57;1.40;;;;;;;-145.18;100.00;46709.22;4993705;28;20042;-79
2022/09/19 06:26:57;;;;;;;9.93;1.60;;;;;;;-145.18;100.00;46703.38;4992866;28;20036;-79
2022/09/19 06:29:22;;;;;;;13.27;1.80;;;;;;;-145.18;100.00;46705.31;4993318;28;20018;-79
2022/09/19 06:31:48;;;;;;;14.90;1.30;;;;;;;-145.18;100.00;46709.22;4994082;28;20038;-79
2022/09/19 06:34:14;;;;;;;11.67;1.20;;;;;;;-145.18;100.00;46709.22;4993231;28;20042;-79
2022/09/19 06:36:43;;;;;;;8.77;1.47;;;;;;;-145.18;100.00;46703.38;4993930;28;20098;-79
2022/09/19 06:39:08;;;;;;;10.93;1.50;;;;;;;-145.18;100.00;46705.31;4993817;28;20113;-79
2022/09/19 06:41:34;;;;;;;14.87;1.87;;;;;;;-145.18;100.00;46707.28;4993797;28;20109;-79
2022/09/19 06:44:01;;;;;;;6.80;1.63;;;;;;;-145.18;100.00;46707.28;4993102;28;20197;-79
2022/09/19 06:46:26;;;;;;;6.70;1.30;;;;;;;-145.18;100.00;46703.38;4993734;28;20570;-79
2022/09/19 06:48:52;;;;;;;16.10;2.00;;;;;;;-145.18;100.00;46707.28;4993368;28;20106;-79
2022/09/19 06:51:17;;;;;;;9.67;1.67;;;;;;;-145.18;100.00;46707.28;4993447;28;20427;-79
2022/09/19 06:53:42;;;;;;;17.63;2.30;;;;;;;-145.18;100.00;46705.31;4992920;28;20110;-79
2022/09/19 06:56:08;;;;;;;30.83;3.70;;;;;;;-145.18;100.00;46705.31;4993256;28;20503;-79
2022/09/19 06:58:34;;;;;;;14.27;1.77;;;;;;;-145.18;100.00;46705.31;4993227;28;20113;-79
2022/09/19 07:01:00;;;;;;;19.23;1.67;;;;;;;-145.18;100.00;46701.41;4993617;28;20054;-79
2022/09/19 07:03:25;;;;;;;15.63;1.70;;;;;;;-145.18;100.00;46701.41;4975127;28;20117;-79
2022/09/19 07:05:51;;;;;;;13.20;1.40;;;;;;;-145.18;100.00;46695.56;4993471;28;20038;-79
2022/09/19 07:08:17;;;;;;;12.40;1.70;;;;;;;-145.18;100.00;46674.06;4975389;28;20054;-79
2022/09/19 07:10:42;;;;;;;14.83;1.93;;;;;;;-145.18;100.00;46648.69;4993258;28;20065;-79
2022/09/19 07:13:10;;;;;;;19.47;2.67;;;;;;;-145.18;100.00;46650.63;4992808;28;20109;-79
2022/09/19 07:15:36;;;;;;;10.37;1.33;;;;;;;-145.18;100.00;46640.88;4993139;28;20061;-79
2022/09/19 07:18:02;;;;;;;10.97;1.53;;;;;;;-145.18;100.00;46638.91;4992376;28;20050;-79
2022/09/19 07:20:28;;;;;;;8.90;1.63;;;;;;;-145.18;100.00;46590.06;4992959;28;20066;-79
2022/09/19 07:23:02;;;;;;;7.83;1.33;;;;;;;-145.18;100.00;46621.31;4992396;28;20105;-79
2022/09/19 07:25:29;;;;;;;13.40;1.60;;;;;;;-145.18;100.00;46636.94;4975368;28;20026;-79
2022/09/19 07:27:56;;;;;;;10.63;1.60;;;;;;;-145.18;100.00;46631.09;4992355;28;20197;-79
2022/09/19 07:30:21;;;;;;;7.73;2.00;;;;;;;-145.18;100.00;46631.09;4992869;28;20030;-79
2022/09/19 07:32:47;;;;;;;10.60;1.60;;;;;;;-145.18;100.00;46609.59;4992419;28;20084;-79
2022/09/19 07:35:12;;;;;;;24.47;2.23;;;;;;;-145.18;100.00;46607.66;4992205;28;20034;-79
2022/09/19 07:37:38;;;;;;;7.70;1.57;;;;;;;-145.18;100.00;46609.59;4975306;28;20543;-79
2022/09/19 07:40:04;;;;;;;7.80;1.47;;;;;;;-145.18;100.00;46601.78;4991211;28;20545;-79
2022/09/19 07:42:29;;;;;;;11.53;1.63;;;;;;;-145.18;100.00;46590.06;4992419;28;20026;-79
2022/09/19 07:44:55;;;;;;;11.27;1.63;;;;;;;-145.18;100.00;46580.31;4991956;28;20072;-79
2022/09/19 07:47:26;;;;;;;8.57;2.00;;;;;;;-145.18;100.00;46578.34;4974913;28;20027;-79
2022/09/19 07:49:54;;;;;;;6.63;1.57;;;;;;;-145.18;100.00;46586.16;4991730;28;20491;-79
2022/09/19 07:52:19;;;;;;;7.30;1.43;;;;;;;-145.18;100.00;46582.25;4991952;28;20034;-79
2022/09/19 07:54:44;;;;;;;16.53;1.70;;;;;;;-145.18;100.00;46578.34;4974538;28;20037;-80
2022/09/19 07:57:10;;;;;;;17.73;1.77;;;;;;;-145.18;100.00;46574.44;4991713;28;20037;-79
2022/09/19 07:59:35;;;;;;;13.80;1.57;;;;;;;-145.18;100.00;46580.31;4992011;28;20591;-79
2022/09/19 08:02:01;;;;;;;11.10;1.43;;;;;;;-145.18;100.00;46568.59;4991516;28;20045;-79
2022/09/19 08:04:27;;;;;;;11.83;1.63;;;;;;;-145.18;100.00;46566.63;4991415;28;20510;-79
2022/09/19 08:06:53;;;;;;;9.43;1.30;;;;;;;-145.18;100.00;46566.63;4992106;28;20113;-80
2022/09/19 08:09:18;;;;;;;12.97;1.30;;;;;;;-145.18;100.00;46572.50;4991335;28;20114;-79
2022/09/19 08:11:43;;;;;;;16.57;1.97;;;;;;;-145.18;100.00;46576.41;4991865;28;20034;-79
2022/09/19 08:14:09;;;;;;;9.43;1.80;;;;;;;-145.18;100.00;46570.53;4991045;28;20108;-79
2022/09/19 08:16:34;;;;;;;9.70;1.33;;;;;;;-145.18;100.00;46570.53;4991505;28;20022;-79
2022/09/19 08:19:00;;;;;;;11.90;2.40;;;;;;;-145.18;100.00;46570.53;4991258;28;20034;-79
2022/09/19 08:21:25;;;;;;;15.07;1.60;;;;;;;-145.18;100.00;46570.53;4991646;28;20113;-78
2022/09/19 08:23:50;;;;;;;11.70;1.20;;;;;;;-145.18;100.00;46572.50;4973819;28;20430;-79
2022/09/19 08:26:16;;;;;;;13.30;2.10;;;;;;;-145.18;100.00;46570.53;4973688;28;20030;-79
2022/09/19 08:28:42;;;;;;;7.97;1.60;;;;;;;-145.18;100.00;46576.41;4991440;28;20034;-79
2022/09/19 08:31:08;;;;;;;13.23;1.40;;;;;;;-145.18;100.00;46580.31;4991332;28;20656;-79
2022/09/19 08:33:34;;;;;;;15.67;1.47;;;;;;;-145.18;100.00;46592.03;4991006;28;20033;-79
2022/09/19 08:36:00;;;;;;;6.40;1.10;;;;;;;-145.18;100.00;46592.03;4987285;28;20042;-79
2022/09/19 08:38:26;;;;;;;7.87;1.30;;;;;;;-145.18;100.00;46590.06;4967435;28;20446;-79
2022/09/19 08:41:01;;;;;;;15.70;1.90;;;;;;;-145.18;100.00;46582.25;4991287;28;20039;-79
2022/09/19 08:43:31;;;;;;;9.70;1.10;;;;;;;-145.18;100.00;46588.13;4990811;28;20030;-79
2022/09/19 08:46:18;;;;;;;10.60;1.17;;;;;;;-145.18;100.00;46601.78;4990966;28;20031;-79
2022/09/19 08:49:12;;;;;;;14.00;1.70;;;;;;;-145.18;100.00;46615.47;4990474;28;20035;-79
2022/09/19 08:52:14;;;;;;;11.20;1.93;;;;;;;-145.18;100.00;46609.59;4990569;28;20030;-79
2022/09/19 08:54:45;;;;;;;8.73;1.40;;;;;;;-145.18;100.00;46611.56;4990921;28;20085;-79
2022/09/19 08:57:25;;;;;;;11.27;2.30;;;;;;;-145.18;100.00;46638.91;4973722;28;20031;-79
2022/09/19 08:59:54;;;;;;;11.50;1.43;;;;;;;-145.18;100.00;46621.31;4990171;28;20034;-79
2022/09/19 09:02:43;;;;;;;13.13;2.17;;;;;;;-145.18;100.00;46623.28;4990674;28;20042;-78
2022/09/19 09:05:34;;;;;;;15.17;2.37;;;;;;;-145.18;100.00;46615.47;4990512;28;20144;-78
2022/09/19 09:08:12;;;;;;;9.90;1.50;;;;;;;-145.18;100.00;46613.50;4990837;28;20035;-79
2022/09/19 09:10:37;;;;;;;11.20;1.50;;;;;;;-145.18;100.00;46615.47;4991135;28;20027;-78
2022/09/19 09:13:05;;;;;;;12.37;1.80;;;;;;;-145.18;100.00;46601.78;4990691;28;20026;-78
2022/09/19 09:15:48;;;;;;;11.87;1.30;;;;;;;-145.18;100.00;46603.75;4990860;28;20038;-79
2022/09/19 09:18:20;;;;;;;9.83;1.13;;;;;;;-145.18;100.00;46611.56;4990256;28;20038;-78
2022/09/19 09:20:56;;;;;;;11.63;1.83;;;;;;;-145.18;100.00;46603.75;4990915;28;20084;-78
2022/09/19 09:23:26;;;;;;;8.53;1.33;;;;;;;-145.18;100.00;46609.59;4990311;28;20031;-78
2022/09/19 09:26:00;;;;;;;11.03;1.13;;;;;;;-145.18;100.00;46611.56;4991075;28;20038;-78
2022/09/19 09:28:40;;;;;;;12.47;1.47;;;;;;;-145.18;100.00;46621.31;4972994;28;20403;-78
2022/09/19 09:31:24;;;;;;;9.90;1.40;;;;;;;-145.18;100.00;46621.31;4990756;28;20683;-78
2022/09/19 09:34:03;;;;;;;16.40;1.73;;;;;;;-145.18;100.00;46627.19;4990753;28;20034;-78
2022/09/19 09:36:35;;;;;;;6.17;1.30;;;;;;;-145.18;100.00;46631.09;4990842;28;20027;-77
2022/09/19 09:39:25;;;;;;;12.00;1.30;;;;;;;-145.18;100.00;46621.31;4989596;28;20255;-78
2022/09/19 09:41:56;;;;;;;15.87;1.67;;;;;;;-145.18;100.00;46625.22;4990641;28;20042;-77
2022/09/19 09:44:43;;;;;;;12.43;1.30;;;;;;;-145.18;100.00;46609.59;4990157;28;20400;-77
2022/09/19 09:47:31;;;;;;;6.57;1.57;;;;;;;-145.18;100.00;46613.50;4990773;28;20031;-77
2022/09/19 09:50:31;;;;;;;7.40;1.20;;;;;;;-145.18;100.00;46607.66;4989647;28;20134;-77
2022/09/19 09:53:08;;;;;;;6.60;1.50;;;;;;;-145.18;100.00;46615.47;4990933;28;20030;-77
2022/09/19 09:56:15;;;;;;;7.90;1.33;;;;;;;-145.18;100.00;46601.78;4990492;28;20060;-77
2022/09/19 09:59:02;;;;;;;7.35;1.40;;;;;;;-145.18;100.00;46603.75;4989862;28;20070;-77
2022/09/19 10:04:39;;;;;;;10.63;2.03;;;;;;;-145.18;100.00;46605.69;4974055;28;20138;-77
2022/09/19 10:07:38;;;;;;;11.63;1.57;;;;;;;-145.18;100.00;46617.41;4974601;28;20030;-77
2022/09/19 10:10:14;;;;;;;12.83;1.40;;;;;;;-145.18;100.00;46607.66;4973784;28;20082;-77
2022/09/19 10:12:58;;;;;;;6.93;1.53;;;;;;;-145.18;100.00;46613.50;4957241;28;20030;-77
2022/09/19 10:15:25;;;;;;;12.43;2.20;;;;;;;-145.18;100.00;46633.06;4984954;28;20058;-77
2022/09/19 10:18:07;;;;;;;11.13;1.80;;;;;;;-145.18;100.00;46625.22;4994001;28;20034;-77
2022/09/19 10:20:49;;;;;;;10.83;1.30;;;;;;;-145.18;100.00;46631.09;4975869;28;20113;-77
2022/09/19 10:23:19;;;;;;;9.00;1.27;;;;;;;-145.18;100.00;46633.06;4993562;28;20030;-77
2022/09/19 10:25:48;;;;;;;12.33;1.60;;;;;;;-145.18;100.00;46623.28;4993386;28;20041;-77
2022/09/19 10:28:29;;;;;;;10.20;1.40;;;;;;;-145.18;100.00;46636.94;4993214;28;20486;-77
2022/09/19 10:30:58;;;;;;;10.37;1.00;;;;;;;-145.18;100.00;46701.41;4993736;28;20030;-77
2022/09/19 10:33:28;;;;;;;9.43;1.93;;;;;;;-145.18;100.00;46720.94;4993298;28;20038;-77
2022/09/19 10:35:58;;;;;;;14.13;2.90;;;;;;;-145.18;100.00;46732.66;4993292;28;20026;-77
2022/09/19 10:38:26;;;;;;;5.60;1.37;;;;;;;-145.18;100.00;46756.09;4993433;28;20034;-77
2022/09/19 10:41:00;;;;;;;4.43;0.90;;;;;;;-145.18;100.00;46771.75;4993140;28;20030;-77
2022/09/19 10:43:52;;;;;;;6.77;1.00;;;;;;;-145.18;100.00;46767.84;4993187;28;20491;-77
2022/09/19 10:46:31;;;;;;;6.60;1.07;;;;;;;-145.18;100.00;46720.94;4992302;28;20045;-77
2022/09/19 10:48:57;;;;;;;7.27;0.90;;;;;;;-145.18;100.00;46773.69;4993214;28;20030;-77
2022/09/19 10:51:33;;;;;;;9.53;1.17;;;;;;;-145.18;100.00;46779.56;4992961;28;20114;-77
2022/09/19 10:54:00;;;;;;;5.75;1.05;;;;;;;-145.18;100.00;46836.19;4991428;28;20030;-77
2022/09/19 10:56:28;;;;;;;19.27;1.90;;;;;;;-145.18;100.00;47379.28;4992817;28;20046;-77
2022/09/19 10:59:02;;;;;;;6.30;1.13;;;;;;;-145.18;100.00;47174.16;4990782;28;20426;-77
2022/09/19 11:01:28;;;;;;;8.17;2.13;;;;;;;-145.18;100.00;47285.50;4992886;28;20033;-77
2022/09/19 11:04:22;;;;;;;5.93;1.53;;;;;;;-145.18;100.00;47295.28;4974984;28;20412;-77
2022/09/19 11:06:59;;;;;;;11.80;1.60;;;;;;;-145.18;100.00;47258.16;4991311;28;20113;-77
2022/09/19 11:09:31;;;;;;;7.97;1.30;;;;;;;-145.18;100.00;47226.91;4992326;28;20027;-77
2022/09/19 11:12:09;;;;;;;4.07;0.80;;;;;;;-145.18;100.00;47228.84;4993158;28;20450;-77
2022/09/19 11:14:40;;;;;;;5.30;1.23;;;;;;;-145.18;100.00;47217.13;4991455;28;20077;-77
2022/09/19 11:17:46;;;;;;;4.53;2.07;;;;;;;-145.18;100.00;47215.19;4992665;28;20022;-77
2022/09/19 11:20:16;;;;;;;7.20;1.30;;;;;;;-145.18;100.00;47226.91;4991973;28;20038;-76
2022/09/19 11:23:05;;;;;;;7.50;0.90;;;;;;;-145.18;100.00;47223.00;4992413;28;20280;-76
2022/09/19 11:25:41;;;;;;;13.53;1.97;;;;;;;-145.18;100.00;47240.56;4992263;28;20027;-76
2022/09/19 11:28:25;;;;;;;12.80;1.87;;;;;;;-145.18;100.00;47230.81;4992522;28;20046;-76
2022/09/19 11:30:50;;;;;;;10.77;1.73;;;;;;;-145.18;100.00;47242.53;4992106;28;20101;-76
2022/09/19 11:33:19;;;;;;;7.23;1.37;;;;;;;-145.18;100.00;47273.78;4992068;28;20117;-76